Sparta, Michigan
Current Conditions -  °F | °C
As of 2:53 PM on Saturday 27 Dec 2014 (Local Time) from KGRR Reporting Station
Light Rain Light Rain  
Wind Chill:   Ceiling: 1300
Heat Index:   Visibility: 10mi
Dew Point:   Wind: 18mph
Humidity: 83%   Direction: 230°SW
Pressure: 29.88"   Gusts: 29mph
Location:  43.16°N, 85.71°W
Report Text: KGRR 271953Z 23016G25KT 10SM -RA BKN013 OVC019 09/07 A2988 RMK AO2 RAB1858 SLP121 P0000 T00940067
Loading
Personal Weather Stations






























Interactive Weather Map New forecast layout! Learn more

10-Day Weather Forecast

Advertisements
Track Severe Weather on mobile